Time;durP1;ratioP1;P1;durP2;ratioP2;P2;SDS_P1;SDS_P2;PMS_P1;PMS_P2;Temp;Humidity;BMP_temperature;BMP_pressure;BME280_temperature;BME280_humidity;BME280_pressure;Samples;Min_cycle;Max_cycle;Signal;HPM_P1;HPM_P2
2022/11/18 00:02:48;;;;;;;0.20;0.20;;;;;;;-147.53;100.00;57128.34;10414358;28;20095;-72
2022/11/18 00:07:50;;;;;;;1.02;0.60;;;;;;;-147.53;100.00;57128.34;10392514;28;20065;-71
2022/11/18 00:18:11;;;;;;;0.67;0.67;;;;;;;-147.53;100.00;57128.34;10416778;28;20507;-71
2022/11/18 00:23:13;;;;;;;0.70;0.63;;;;;;;-147.53;100.00;57128.34;10407748;28;20057;-71
2022/11/18 00:28:15;;;;;;;0.55;0.40;;;;;;;-147.53;100.00;57128.34;10391950;28;20124;-71
2022/11/18 00:33:16;;;;;;;1.02;0.73;;;;;;;-147.53;100.00;57128.34;10402409;28;20746;-70
2022/11/18 00:38:18;;;;;;;1.08;0.65;;;;;;;-147.53;100.00;57128.34;10424949;28;20131;-70
2022/11/18 00:43:19;;;;;;;6.82;4.85;;;;;;;-147.53;100.00;57128.34;10401554;28;20049;-70
2022/11/18 00:48:21;;;;;;;1.15;0.63;;;;;;;-147.53;100.00;57128.34;10406965;28;20413;-70
2022/11/18 00:53:25;;;;;;;0.22;0.22;;;;;;;-147.53;100.00;57128.34;10406567;28;20056;-70
2022/11/18 00:58:26;;;;;;;1.33;0.85;;;;;;;-147.53;100.00;57128.34;10398688;28;20505;-71
2022/11/18 01:03:29;;;;;;;1.02;0.50;;;;;;;-147.53;100.00;57128.34;10406882;28;20038;-70
2022/11/18 01:08:30;;;;;;;0.73;0.50;;;;;;;-147.53;100.00;57128.34;10398436;28;20045;-70
2022/11/18 01:13:32;;;;;;;0.28;0.28;;;;;;;-147.53;100.00;57128.34;10397472;28;20075;-72
2022/11/18 01:18:34;;;;;;;0.57;0.57;;;;;;;-147.53;100.00;57128.34;10411636;28;20046;-71
2022/11/18 01:23:35;;;;;;;0.57;0.57;;;;;;;-147.53;100.00;57128.34;10397201;28;20825;-70
2022/11/18 01:28:38;;;;;;;0.32;0.32;;;;;;;-147.53;100.00;57128.34;10411605;28;20051;-70
2022/11/18 01:33:40;;;;;;;0.43;0.32;;;;;;;-147.53;100.00;57128.34;10397475;28;20068;-70
2022/11/18 01:38:42;;;;;;;0.50;0.50;;;;;;;-147.53;100.00;57128.34;10404908;28;20045;-70
2022/11/18 01:43:57;;;;;;;1.25;0.82;;;;;;;-147.53;100.00;57128.34;10378573;28;20045;-70
2022/11/18 01:49:05;;;;;;;1.27;0.80;;;;;;;-147.53;100.00;57128.34;10390924;28;20068;-70
2022/11/18 01:54:16;;;;;;;0.55;0.52;;;;;;;-147.53;100.00;57128.34;10396966;28;20132;-70
2022/11/18 01:59:22;;;;;;;0.20;0.20;;;;;;;-147.53;100.00;57128.34;10396124;28;20037;-70
2022/11/18 02:04:24;;;;;;;1.05;0.93;;;;;;;-147.53;100.00;57128.34;10405201;28;20068;-71
2022/11/18 02:09:26;;;;;;;0.10;0.10;;;;;;;-147.53;100.00;57128.34;10416818;28;20069;-70
2022/11/18 02:14:37;;;;;;;0.22;0.22;;;;;;;-147.53;100.00;57128.34;10415794;28;20160;-71
2022/11/18 02:20:02;;;;;;;0.10;0.10;;;;;;;-147.53;100.00;57128.34;10410343;28;20061;-72
2022/11/18 02:25:14;;;;;;;0.22;0.22;;;;;;;-147.53;100.00;57128.34;10405181;28;20049;-70
2022/11/18 02:30:17;;;;;;;1.08;0.75;;;;;;;-147.53;100.00;57128.34;10417185;28;20056;-71
2022/11/18 02:35:27;;;;;;;0.45;0.45;;;;;;;-147.53;100.00;57128.34;10409603;28;20044;-72
2022/11/18 02:40:32;;;;;;;0.40;0.40;;;;;;;-147.53;100.00;57128.34;10409799;28;20041;-72
2022/11/18 02:45:37;;;;;;;1.17;0.73;;;;;;;-147.53;100.00;57128.34;10409258;28;20780;-71
2022/11/18 02:50:41;;;;;;;1.08;0.88;;;;;;;-147.53;100.00;57128.34;10409230;28;20037;-73
2022/11/18 02:55:45;;;;;;;0.20;0.20;;;;;;;-147.53;100.00;57128.34;10410133;28;20041;-73
2022/11/18 03:00:58;;;;;;;1.73;0.77;;;;;;;-147.53;100.00;57128.34;10408024;28;20042;-70
2022/11/18 03:06:30;;;;;;;0.68;0.60;;;;;;;-147.53;100.00;57128.34;10404196;28;20124;-72
2022/11/18 03:11:38;;;;;;;0.63;0.63;;;;;;;-147.53;100.00;57128.34;10409762;28;20494;-70
2022/11/18 03:16:55;;;;;;;0.30;0.30;;;;;;;-147.53;100.00;57128.34;10403707;28;20045;-72
2022/11/18 03:22:24;;;;;;;0.20;0.20;;;;;;;-147.53;100.00;57128.34;10395101;28;20073;-71
2022/11/18 03:27:40;;;;;;;0.50;0.50;;;;;;;-147.53;100.00;57128.34;10407766;28;20099;-71
2022/11/18 03:32:49;;;;;;;0.22;0.22;;;;;;;-147.53;100.00;57128.34;10403427;28;20120;-71
2022/11/18 03:37:58;;;;;;;1.35;1.00;;;;;;;-147.53;100.00;57128.34;10410251;28;20041;-71
2022/11/18 03:43:13;;;;;;;0.30;0.30;;;;;;;-147.53;100.00;57128.34;10401070;28;20124;-71
2022/11/18 03:48:17;;;;;;;1.02;0.52;;;;;;;-147.53;100.00;57128.34;10396384;28;20042;-71
2022/11/18 03:53:21;;;;;;;0.43;0.43;;;;;;;-147.53;100.00;57128.34;10399867;28;20052;-72
2022/11/18 03:58:45;;;;;;;0.77;0.43;;;;;;;-147.53;100.00;57128.34;10416596;28;20060;-72
2022/11/18 04:03:46;;;;;;;3.33;1.60;;;;;;;-147.53;100.00;57128.34;10407626;28;20056;-72
2022/11/18 04:08:55;;;;;;;2.83;0.30;;;;;;;-147.53;100.00;57128.34;10391904;28;20072;-72
2022/11/18 04:13:58;;;;;;;1.55;0.90;;;;;;;-147.53;100.00;57128.34;10384045;28;20041;-72
2022/11/18 04:18:59;;;;;;;0.28;0.28;;;;;;;-147.53;100.00;57128.34;10398960;28;20049;-71
2022/11/18 04:24:07;;;;;;;0.55;0.50;;;;;;;-147.53;100.00;57128.34;10399483;28;20111;-71
2022/11/18 04:29:08;;;;;;;0.98;0.47;;;;;;;-147.53;100.00;57128.34;10397378;28;20069;-71
2022/11/18 04:34:10;;;;;;;0.70;0.60;;;;;;;-147.53;100.00;57128.34;10398975;28;20140;-71
2022/11/18 04:39:11;;;;;;;0.90;0.70;;;;;;;-147.53;100.00;57128.34;10397930;28;20034;-71
2022/11/18 04:44:13;;;;;;;1.65;1.20;;;;;;;-147.53;100.00;57128.34;10416318;28;20053;-71
2022/11/18 04:49:16;;;;;;;0.85;0.82;;;;;;;-147.53;100.00;57128.34;10387116;28;20555;-72
2022/11/18 04:54:19;;;;;;;1.15;1.05;;;;;;;-147.53;100.00;57128.34;10398237;28;20045;-72
2022/11/18 04:59:26;;;;;;;0.32;0.32;;;;;;;-147.53;100.00;57128.34;10405779;28;20436;-72
2022/11/18 05:04:30;;;;;;;1.35;0.90;;;;;;;-147.53;100.00;57128.34;10404195;28;20041;-71
2022/11/18 05:09:33;;;;;;;2.83;1.98;;;;;;;-147.53;100.00;57128.34;10395737;28;20132;-71
2022/11/18 05:14:34;;;;;;;17.52;2.17;;;;;;;-147.53;100.00;57128.34;10395642;28;20871;-71
2022/11/18 05:19:38;;;;;;;1.00;0.90;;;;;;;-147.53;100.00;57128.34;10397435;28;20133;-71
2022/11/18 05:24:39;;;;;;;2.88;1.38;;;;;;;-147.53;100.00;57128.34;10396615;28;20075;-71
2022/11/18 05:29:41;;;;;;;4.35;2.85;;;;;;;-147.53;100.00;57128.34;10395917;28;20045;-71
2022/11/18 05:34:43;;;;;;;0.77;0.68;;;;;;;-147.53;100.00;57128.34;10390740;28;20540;-71
2022/11/18 05:39:44;;;;;;;6.68;4.32;;;;;;;-147.53;100.00;57128.34;10417758;28;20804;-71
2022/11/18 05:44:46;;;;;;;1.98;1.65;;;;;;;-147.53;100.00;57128.34;10396850;28;20432;-71
2022/11/18 05:49:47;;;;;;;1.45;0.98;;;;;;;-147.53;100.00;57128.34;10395641;28;20056;-70
2022/11/18 05:54:49;;;;;;;2.17;1.38;;;;;;;-147.53;100.00;57128.34;10387170;28;20047;-71
2022/11/18 05:59:51;;;;;;;2.15;1.33;;;;;;;-147.53;100.00;57128.34;10394550;28;20053;-72
2022/11/18 06:04:58;;;;;;;2.55;1.33;;;;;;;-147.53;100.00;57128.34;10391355;28;20136;-71
2022/11/18 06:10:01;;;;;;;4.45;2.60;;;;;;;-147.53;100.00;57128.34;10396402;28;20524;-73
2022/11/18 06:15:14;;;;;;;1.70;1.30;;;;;;;-147.53;100.00;57128.34;10370147;28;20050;-71
2022/11/18 06:20:19;;;;;;;3.25;1.95;;;;;;;-147.53;100.00;57128.34;10392810;28;20052;-71
2022/11/18 06:25:21;;;;;;;3.67;2.58;;;;;;;-147.53;100.00;57128.34;10398269;28;20495;-71
2022/11/18 06:30:23;;;;;;;4.65;3.08;;;;;;;-147.53;100.00;57128.34;10394091;28;20060;-71
2022/11/18 06:35:24;;;;;;;7.03;4.20;;;;;;;-147.53;100.00;57128.34;10394963;28;20810;-71
2022/11/18 06:40:26;;;;;;;38.03;35.10;;;;;;;-147.53;100.00;57128.34;10393625;28;20079;-71
2022/11/18 06:45:35;;;;;;;69.82;64.32;;;;;;;-147.53;100.00;57128.34;10396154;28;20053;-71
2022/11/18 06:50:36;;;;;;;85.63;78.70;;;;;;;-147.53;100.00;57128.34;10406878;28;20099;-71
2022/11/18 06:55:38;;;;;;;112.35;102.15;;;;;;;-147.53;100.00;57128.34;10402620;28;20045;-71
2022/11/18 07:00:39;;;;;;;167.93;137.35;;;;;;;-147.53;100.00;57128.34;10402197;28;20049;-70
2022/11/18 07:05:41;;;;;;;9.95;7.18;;;;;;;-147.53;100.00;57128.34;10402800;28;20049;-71
2022/11/18 07:10:51;;;;;;;62.05;57.72;;;;;;;-147.53;100.00;57128.34;10399298;28;20038;-71
2022/11/18 07:15:52;;;;;;;11.27;8.55;;;;;;;-147.53;100.00;57128.34;10401837;28;20412;-72
2022/11/18 07:20:54;;;;;;;5.50;3.08;;;;;;;-147.53;100.00;57128.34;10401745;28;20457;-72
2022/11/18 07:25:55;;;;;;;27.80;25.48;;;;;;;-147.53;100.00;57128.34;10401303;28;20045;-71
2022/11/18 07:31:05;;;;;;;8.52;6.10;;;;;;;-147.53;100.00;57128.34;10399479;28;20037;-72
2022/11/18 07:36:13;;;;;;;2.90;1.95;;;;;;;-147.53;100.00;57128.34;10393484;28;20048;-72
2022/11/18 07:41:17;;;;;;;5.00;2.65;;;;;;;-147.53;100.00;57128.34;10400633;28;20057;-71
2022/11/18 07:46:19;;;;;;;0.85;0.80;;;;;;;-147.53;100.00;57128.34;10400064;28;20144;-71
2022/11/18 07:51:24;;;;;;;3.85;1.80;;;;;;;-147.53;100.00;57128.34;10400029;28;20049;-73
2022/11/18 07:56:26;;;;;;;2.08;1.80;;;;;;;-147.53;100.00;57128.34;10399512;28;20053;-72
2022/11/18 08:01:29;;;;;;;1.17;1.08;;;;;;;-147.53;100.00;57128.34;10391196;28;20041;-71
2022/11/18 08:06:33;;;;;;;3.45;2.22;;;;;;;-147.53;100.00;57128.34;10414612;28;20065;-71
2022/11/18 08:11:35;;;;;;;1.95;0.82;;;;;;;-147.53;100.00;57128.34;10398238;28;20045;-71
2022/11/18 08:16:36;;;;;;;3.15;1.90;;;;;;;-147.53;100.00;57128.34;10400312;28;20046;-71
2022/11/18 08:21:38;;;;;;;1.15;1.05;;;;;;;-147.53;100.00;57128.34;10398630;28;20132;-71
2022/11/18 08:26:39;;;;;;;4.38;3.67;;;;;;;-147.53;100.00;57128.34;10398811;28;20042;-72
2022/11/18 08:31:41;;;;;;;6.22;4.35;;;;;;;-147.53;100.00;57128.34;10399252;28;20045;-70
2022/11/18 08:36:43;;;;;;;5.07;3.13;;;;;;;-147.53;100.00;57128.34;10398489;28;20880;-71
2022/11/18 08:41:45;;;;;;;0.85;0.63;;;;;;;-147.53;100.00;57128.34;10398104;28;20049;-71
2022/11/18 08:46:47;;;;;;;2.20;1.35;;;;;;;-147.53;100.00;57128.34;10398553;28;20084;-72
2022/11/18 08:51:49;;;;;;;3.45;1.98;;;;;;;-147.53;100.00;57128.34;10403239;28;20128;-71
2022/11/18 08:56:50;;;;;;;1.17;1.05;;;;;;;-147.53;100.00;57128.34;10399281;28;20041;-71
2022/11/18 09:01:52;;;;;;;1.65;0.93;;;;;;;-147.53;100.00;57128.34;10396718;28;20049;-71
2022/11/18 09:06:53;;;;;;;2.20;1.65;;;;;;;-147.53;100.00;57128.34;10398203;28;20045;-72
2022/11/18 09:11:55;;;;;;;1.88;1.70;;;;;;;-147.53;100.00;57128.34;10395892;28;20037;-71
2022/11/18 09:16:56;;;;;;;1.13;0.82;;;;;;;-147.53;100.00;57128.34;10412639;28;20052;-71
2022/11/18 09:21:58;;;;;;;3.47;1.50;;;;;;;-147.53;100.00;57128.34;10397190;28;20095;-70
2022/11/18 09:27:04;;;;;;;1.40;1.33;;;;;;;-147.53;100.00;57128.34;10389788;28;20039;-70
2022/11/18 09:32:05;;;;;;;0.30;0.30;;;;;;;-147.53;100.00;57128.34;10396704;28;20046;-70
2022/11/18 09:37:07;;;;;;;2.50;1.92;;;;;;;-147.53;100.00;57128.34;10396229;28;20057;-70
2022/11/18 09:42:45;;;;;;;2.75;2.10;;;;;;;-147.53;100.00;57128.34;10396104;28;20128;-70
2022/11/18 09:47:47;;;;;;;1.83;1.67;;;;;;;-147.53;100.00;57128.34;10393463;28;20037;-74
2022/11/18 09:53:03;;;;;;;2.05;1.65;;;;;;;-147.53;100.00;57128.34;10395560;28;20132;-71
2022/11/18 09:58:05;;;;;;;1.48;1.35;;;;;;;-147.53;100.00;57128.34;10395775;28;20037;-71
2022/11/18 10:03:20;;;;;;;3.95;2.53;;;;;;;-147.53;100.00;57128.34;10394265;28;20053;-70
2022/11/18 10:08:35;;;;;;;2.33;1.55;;;;;;;-147.53;100.00;57128.34;10388687;28;20417;-71
2022/11/18 10:13:40;;;;;;;1.00;1.00;;;;;;;-147.53;100.00;57128.34;10395317;28;20659;-71
2022/11/18 10:18:52;;;;;;;3.15;2.33;;;;;;;-147.53;100.00;57128.34;10394927;28;20044;-71
2022/11/18 10:24:15;;;;;;;2.90;1.40;;;;;;;-147.53;100.00;57128.34;10398910;28;20041;-71
2022/11/18 10:29:17;;;;;;;1.27;1.10;;;;;;;-147.53;100.00;57128.34;10395125;28;20647;-70
2022/11/18 10:34:19;;;;;;;1.08;1.00;;;;;;;-147.53;100.00;57128.34;10403703;28;20451;-72
2022/11/18 10:39:21;;;;;;;3.03;1.35;;;;;;;-147.53;100.00;57128.34;10402896;28;20087;-70
2022/11/18 10:44:37;;;;;;;1.88;1.15;;;;;;;-147.53;100.00;57128.34;10403380;28;20099;-70
2022/11/18 10:49:39;;;;;;;2.95;2.15;;;;;;;-147.53;100.00;57128.34;10402552;28;20104;-71
2022/11/18 10:54:41;;;;;;;1.75;1.63;;;;;;;-147.53;100.00;57128.34;10403121;28;20670;-71
2022/11/18 10:59:43;;;;;;;1.90;1.20;;;;;;;-147.53;100.00;57128.34;10401992;28;20696;-71
2022/11/18 11:04:46;;;;;;;7.38;6.72;;;;;;;-147.53;100.00;57128.34;10402784;28;20048;-71
2022/11/18 11:10:03;;;;;;;3.97;2.85;;;;;;;-147.53;100.00;57128.34;10402047;28;20055;-72
2022/11/18 11:15:31;;;;;;;3.90;2.55;;;;;;;-147.53;100.00;57128.34;10400601;28;20147;-71
2022/11/18 11:20:33;;;;;;;15.93;7.63;;;;;;;-147.53;100.00;57128.34;10395862;28;20050;-71
2022/11/18 11:26:00;;;;;;;0.77;0.77;;;;;;;-147.53;100.00;57128.34;10402424;28;20073;-71
2022/11/18 11:31:24;;;;;;;2.38;1.88;;;;;;;-147.53;100.00;57128.34;10401319;28;20042;-71
2022/11/18 11:36:48;;;;;;;10.88;2.70;;;;;;;-147.53;100.00;57128.34;10401163;28;20128;-71
2022/11/18 11:42:14;;;;;;;4.85;2.65;;;;;;;-147.53;100.00;57128.34;10400591;28;20037;-71
2022/11/18 11:52:43;;;;;;;3.07;2.23;;;;;;;-147.53;100.00;57128.34;10394663;28;20452;-71
2022/11/18 11:58:03;;;;;;;2.87;2.13;;;;;;;-147.53;100.00;57128.34;10401044;28;20041;-71
2022/11/18 12:03:10;;;;;;;5.13;4.53;;;;;;;-147.53;100.00;57128.34;10399835;28;20041;-72
2022/11/18 12:08:19;;;;;;;2.42;1.90;;;;;;;-147.53;100.00;57128.34;10392290;28;20045;-71
2022/11/18 12:13:26;;;;;;;2.63;1.80;;;;;;;-147.53;100.00;57128.34;10391394;28;20115;-71
2022/11/18 12:18:45;;;;;;;4.40;3.15;;;;;;;-147.53;100.00;57128.34;10390208;28;20033;-70
2022/11/18 12:24:16;;;;;;;0.60;0.60;;;;;;;-147.53;100.00;57128.34;10390621;28;20045;-71
2022/11/18 12:29:17;;;;;;;1.58;1.02;;;;;;;-147.53;100.00;57128.34;10395421;28;20052;-73
2022/11/18 12:34:25;;;;;;;1.70;1.40;;;;;;;-147.53;100.00;57128.34;10397081;28;20468;-71
2022/11/18 12:39:27;;;;;;;4.07;2.58;;;;;;;-147.53;100.00;57128.34;10389492;28;20132;-72
2022/11/18 12:44:29;;;;;;;3.63;2.80;;;;;;;-147.53;100.00;57128.34;10394465;28;20049;-71
2022/11/18 12:49:30;;;;;;;17.10;15.70;;;;;;;-147.53;100.00;57128.34;10403336;28;20038;-72
2022/11/18 12:54:34;;;;;;;10.90;8.27;;;;;;;-147.53;100.00;57128.34;10389934;28;20048;-70
2022/11/18 12:59:37;;;;;;;8.00;5.95;;;;;;;-147.53;100.00;57128.34;10392501;28;20044;-71
2022/11/18 13:04:39;;;;;;;68.22;37.40;;;;;;;-147.53;100.00;57128.34;10384425;28;20045;-71
2022/11/18 13:09:46;;;;;;;0.88;0.68;;;;;;;-147.53;100.00;57128.34;10383088;28;20052;-69
2022/11/18 13:20:29;;;;;;;1.63;1.52;;;;;;;-147.53;100.00;57128.34;10403538;28;20314;-71
2022/11/18 13:25:31;;;;;;;1.55;0.95;;;;;;;-147.53;100.00;57128.34;10386015;28;20076;-71
2022/11/18 13:30:37;;;;;;;1.58;1.17;;;;;;;-147.53;100.00;57128.34;10396098;28;20496;-70
2022/11/18 13:35:39;;;;;;;2.97;2.10;;;;;;;-147.53;100.00;57128.34;10397041;28;20111;-71
2022/11/18 13:41:13;;;;;;;1.23;0.85;;;;;;;-147.53;100.00;57128.34;10396393;28;20187;-70
2022/11/18 13:46:15;;;;;;;1.33;1.23;;;;;;;-147.53;100.00;57128.34;10397471;28;20044;-75
2022/11/18 13:51:17;;;;;;;1.38;1.08;;;;;;;-147.53;100.00;57128.34;10396513;28;20045;-71
2022/11/18 13:56:21;;;;;;;4.45;2.92;;;;;;;-147.53;100.00;57128.34;10396011;28;20053;-75
2022/11/18 14:01:25;;;;;;;1.15;1.08;;;;;;;-147.53;100.00;57128.34;10392497;28;20038;-73
2022/11/18 14:06:28;;;;;;;1.45;1.25;;;;;;;-147.53;100.00;57128.34;10383853;28;20037;-74
2022/11/18 14:11:37;;;;;;;2.10;1.58;;;;;;;-147.53;100.00;57128.34;10390671;28;20049;-73
2022/11/18 14:16:41;;;;;;;1.48;1.38;;;;;;;-147.53;100.00;57128.34;10397177;28;20107;-72
2022/11/18 14:21:42;;;;;;;1.88;1.70;;;;;;;-147.53;100.00;57128.34;10396723;28;20382;-72
2022/11/18 14:26:44;;;;;;;1.63;1.00;;;;;;;-147.53;100.00;57128.34;10396016;28;20587;-72
2022/11/18 14:32:22;;;;;;;2.78;1.38;;;;;;;-147.53;100.00;57128.34;10395570;28;20512;-73
2022/11/18 14:37:23;;;;;;;1.10;1.05;;;;;;;-147.53;100.00;57128.34;10395853;28;20634;-71
2022/11/18 14:42:25;;;;;;;3.33;1.85;;;;;;;-147.53;100.00;57128.34;10395778;28;20046;-73
2022/11/18 14:47:29;;;;;;;3.22;1.83;;;;;;;-147.53;100.00;57128.34;10388593;28;20038;-72
2022/11/18 14:52:33;;;;;;;5.03;2.10;;;;;;;-147.53;100.00;57128.34;10396224;28;20056;-75
2022/11/18 14:57:35;;;;;;;1.25;1.15;;;;;;;-147.53;100.00;57128.34;10380069;28;20081;-73
2022/11/18 15:02:36;;;;;;;2.58;1.50;;;;;;;-147.53;100.00;57128.34;10379284;28;20042;-73
2022/11/18 15:07:38;;;;;;;1.02;0.98;;;;;;;-147.53;100.00;57128.34;10403301;28;20037;-74
2022/11/18 15:12:39;;;;;;;1.17;0.82;;;;;;;-147.53;100.00;57128.34;10392906;28;20103;-73
2022/11/18 15:17:41;;;;;;;3.38;1.45;;;;;;;-147.53;100.00;57128.34;10387210;28;20104;-73
2022/11/18 15:22:42;;;;;;;2.67;1.80;;;;;;;-147.53;100.00;57128.34;10385618;28;20069;-72
2022/11/18 15:27:44;;;;;;;3.75;1.88;;;;;;;-147.53;100.00;57128.34;10384411;28;20037;-73
2022/11/18 15:32:45;;;;;;;4.70;3.30;;;;;;;-147.53;100.00;57128.34;10393902;28;20049;-71
2022/11/18 15:37:47;;;;;;;3.38;1.33;;;;;;;-147.53;100.00;57128.34;10403148;28;20091;-71
2022/11/18 15:42:48;;;;;;;2.20;2.00;;;;;;;-147.53;100.00;57128.34;10403039;28;20068;-72
2022/11/18 15:47:52;;;;;;;2.92;1.92;;;;;;;-147.53;100.00;57128.34;10399111;28;20477;-73
2022/11/18 15:52:54;;;;;;;2.97;2.05;;;;;;;-147.53;100.00;57128.34;10398192;28;20049;-73
2022/11/18 15:57:56;;;;;;;1.17;1.08;;;;;;;-147.53;100.00;57128.34;10389108;28;20144;-73
2022/11/18 16:02:57;;;;;;;5.00;2.15;;;;;;;-147.53;100.00;57128.34;10409806;28;20424;-73
2022/11/18 16:07:59;;;;;;;4.15;2.45;;;;;;;-147.53;100.00;57128.34;10404024;28;20067;-75
2022/11/18 16:13:00;;;;;;;3.38;2.88;;;;;;;-147.53;100.00;57128.34;10406101;28;20124;-72
2022/11/18 16:18:02;;;;;;;1.40;1.13;;;;;;;-147.53;100.00;57128.34;10398178;28;20045;-72
2022/11/18 16:23:04;;;;;;;3.22;2.38;;;;;;;-147.53;100.00;57128.34;10392063;28;20091;-73
2022/11/18 16:28:05;;;;;;;3.53;2.38;;;;;;;-147.53;100.00;57128.34;10398174;28;20034;-73
2022/11/18 16:33:27;;;;;;;2.50;2.30;;;;;;;-147.53;100.00;57128.34;10395766;28;20077;-72
2022/11/18 16:38:28;;;;;;;1.55;1.20;;;;;;;-147.53;100.00;57128.34;10398504;28;20523;-72
2022/11/18 16:43:30;;;;;;;2.10;1.90;;;;;;;-147.53;100.00;57128.34;10396836;28;20053;-72
2022/11/18 16:48:32;;;;;;;3.78;3.30;;;;;;;-147.53;100.00;57128.34;10410490;28;20131;-72
2022/11/18 16:53:34;;;;;;;0.75;0.55;;;;;;;-147.53;100.00;57128.34;10394444;28;20540;-73
2022/11/18 16:58:36;;;;;;;2.03;1.33;;;;;;;-147.53;100.00;57128.34;10394498;28;20132;-73
2022/11/18 17:03:38;;;;;;;1.45;1.08;;;;;;;-147.53;100.00;57128.34;10404723;28;20058;-75
2022/11/18 17:08:39;;;;;;;0.68;0.68;;;;;;;-147.53;100.00;57128.34;10397372;28;20045;-75
2022/11/18 17:13:41;;;;;;;1.27;1.02;;;;;;;-147.53;100.00;57128.34;10389915;28;20048;-72
2022/11/18 17:18:43;;;;;;;1.33;1.23;;;;;;;-147.53;100.00;57128.34;10397121;28;20509;-75
2022/11/18 17:23:46;;;;;;;1.98;1.77;;;;;;;-147.53;100.00;57128.34;10396380;28;20041;-72
2022/11/18 17:28:48;;;;;;;2.42;1.95;;;;;;;-147.53;100.00;57128.34;10395167;28;20049;-73
2022/11/18 17:33:54;;;;;;;1.50;1.00;;;;;;;-147.53;100.00;57128.34;10395363;28;20049;-74
2022/11/18 17:38:58;;;;;;;0.30;0.30;;;;;;;-147.53;100.00;57128.34;10397071;28;20312;-74
2022/11/18 17:44:02;;;;;;;0.85;0.55;;;;;;;-147.53;100.00;57128.34;10396434;28;20140;-73
2022/11/18 17:49:08;;;;;;;1.35;1.25;;;;;;;-147.53;100.00;57128.34;10385127;28;20457;-73
2022/11/18 17:54:11;;;;;;;1.73;1.35;;;;;;;-147.53;100.00;57128.34;10393054;28;20060;-74
2022/11/18 17:59:14;;;;;;;2.05;0.43;;;;;;;-147.53;100.00;57128.34;10396458;28;20053;-72
2022/11/18 18:04:20;;;;;;;0.85;0.70;;;;;;;-147.53;100.00;57128.34;10399942;28;20045;-72
2022/11/18 18:09:21;;;;;;;0.47;0.47;;;;;;;-147.53;100.00;57128.34;10399018;28;20048;-73
2022/11/18 18:14:31;;;;;;;1.05;0.98;;;;;;;-147.53;100.00;57128.34;10399618;28;20045;-73
2022/11/18 18:19:32;;;;;;;0.95;0.50;;;;;;;-147.53;100.00;57128.34;10395808;28;20034;-73
2022/11/18 18:24:34;;;;;;;0.22;0.22;;;;;;;-147.53;100.00;57128.34;10396481;28;20064;-74
2022/11/18 18:29:35;;;;;;;2.00;1.10;;;;;;;-147.53;100.00;57128.34;10406218;28;20046;-74
2022/11/18 18:34:37;;;;;;;0.70;0.47;;;;;;;-147.53;100.00;57128.34;10396623;28;20060;-73
2022/11/18 18:39:38;;;;;;;1.42;1.33;;;;;;;-147.53;100.00;57128.34;10412031;28;20049;-74
2022/11/18 18:50:00;;;;;;;1.05;0.98;;;;;;;-147.53;100.00;57128.34;10400792;28;20052;-73
2022/11/18 18:55:05;;;;;;;0.50;0.50;;;;;;;-147.53;100.00;57128.34;10405662;28;20053;-74
2022/11/18 19:00:07;;;;;;;2.63;0.43;;;;;;;-147.53;100.00;57128.34;10404468;28;20063;-73
2022/11/18 19:05:09;;;;;;;0.22;0.22;;;;;;;-147.53;100.00;57128.34;10406608;28;20062;-75
2022/11/18 19:10:11;;;;;;;0.95;0.52;;;;;;;-147.53;100.00;57128.34;10403485;28;20046;-73
2022/11/18 19:15:12;;;;;;;3.05;1.77;;;;;;;-147.53;100.00;57128.34;10403524;28;20045;-73
2022/11/18 19:20:33;;;;;;;1.58;0.85;;;;;;;-147.53;100.00;57128.34;10413980;28;20041;-74
2022/11/18 19:25:34;;;;;;;2.63;1.63;;;;;;;-147.53;100.00;57128.34;10422331;28;20059;-73
2022/11/18 19:30:36;;;;;;;0.38;0.38;;;;;;;-147.53;100.00;57128.34;10397702;28;20045;-73
2022/11/18 19:35:38;;;;;;;0.47;0.40;;;;;;;-147.53;100.00;57128.34;10401620;28;20046;-73
2022/11/18 19:40:39;;;;;;;0.20;0.20;;;;;;;-147.53;100.00;57128.34;10388653;28;20056;-72
2022/11/18 19:45:49;;;;;;;0.10;0.10;;;;;;;-147.53;100.00;57128.34;10412945;28;20056;-73
2022/11/18 19:50:51;;;;;;;0.85;0.63;;;;;;;-147.53;100.00;57128.34;10401471;28;20034;-73
2022/11/18 19:55:54;;;;;;;0.10;0.10;;;;;;;-147.53;100.00;57128.34;10407875;28;20045;-72
2022/11/18 20:00:55;;;;;;;3.47;0.57;;;;;;;-147.53;100.00;57128.34;10402440;28;20037;-73
2022/11/18 20:06:00;;;;;;;0.25;0.25;;;;;;;-147.53;100.00;57128.34;10398898;28;20053;-73
2022/11/18 20:11:04;;;;;;;0.40;0.40;;;;;;;-147.53;100.00;57128.34;10392512;28;20038;-74
2022/11/18 20:16:14;;;;;;;0.55;0.30;;;;;;;-147.53;100.00;57128.34;10398617;28;20080;-72
2022/11/18 20:21:21;;;;;;;0.80;0.65;;;;;;;-147.53;100.00;57128.34;10397369;28;20033;-72
2022/11/18 20:26:25;;;;;;;3.95;2.67;;;;;;;-147.53;100.00;57128.34;10407767;28;20041;-73
2022/11/18 20:31:27;;;;;;;3.53;2.33;;;;;;;-147.53;100.00;57128.34;10391638;28;20046;-75
2022/11/18 20:36:31;;;;;;;1.33;1.02;;;;;;;-147.53;100.00;57128.34;10405552;28;20057;-71
2022/11/18 20:41:35;;;;;;;0.98;0.47;;;;;;;-147.53;100.00;57128.34;10387891;28;20045;-72
2022/11/18 20:46:36;;;;;;;0.30;0.30;;;;;;;-147.53;100.00;57128.34;10398412;28;20046;-72
2022/11/18 20:51:38;;;;;;;1.08;0.50;;;;;;;-147.53;100.00;57128.34;10405815;28;20382;-73
2022/11/18 20:56:39;;;;;;;1.33;1.23;;;;;;;-147.53;100.00;57128.34;10398597;28;20789;-72
2022/11/18 21:01:41;;;;;;;0.75;0.68;;;;;;;-147.53;100.00;57128.34;10396519;28;20050;-72
2022/11/18 21:06:42;;;;;;;3.17;1.10;;;;;;;-147.53;100.00;57128.34;10386488;28;20046;-73
2022/11/18 21:11:44;;;;;;;0.82;0.50;;;;;;;-147.53;100.00;57128.34;10395681;28;20091;-70
2022/11/18 21:16:47;;;;;;;0.30;0.30;;;;;;;-147.53;100.00;57128.34;10396299;28;20242;-72
2022/11/18 21:21:51;;;;;;;1.63;1.25;;;;;;;-147.53;100.00;57128.34;10389060;28;20045;-71
2022/11/18 21:26:54;;;;;;;0.30;0.30;;;;;;;-147.53;100.00;57128.34;10388516;28;20041;-72
2022/11/18 21:31:56;;;;;;;;;;;;;;;-147.53;100.00;57128.34;10395773;28;20517;-73
2022/11/18 21:36:58;;;;;;;0.50;0.50;;;;;;;-147.53;100.00;57128.34;10396559;28;19948;-71
2022/11/18 21:41:59;;;;;;;1.08;0.93;;;;;;;-147.53;100.00;57128.34;10403190;28;20037;-72
2022/11/18 21:47:01;;;;;;;0.43;0.43;;;;;;;-147.53;100.00;57128.34;10394509;28;20045;-71
2022/11/18 21:52:03;;;;;;;0.28;0.28;;;;;;;-147.53;100.00;57128.34;10393943;28;20402;-71
2022/11/18 21:57:04;;;;;;;0.75;0.50;;;;;;;-147.53;100.00;57128.34;10394975;28;20053;-71
2022/11/18 22:02:12;;;;;;;0.80;0.77;;;;;;;-147.53;100.00;57128.34;10389803;28;20045;-71
2022/11/18 22:07:13;;;;;;;0.98;0.75;;;;;;;-147.53;100.00;57128.34;10401580;28;20645;-73
2022/11/18 22:12:15;;;;;;;0.13;0.13;;;;;;;-147.53;100.00;57128.34;10393922;28;20072;-72
2022/11/18 22:17:16;;;;;;;1.38;0.75;;;;;;;-147.53;100.00;57128.34;10393348;28;20037;-74
2022/11/18 22:22:18;;;;;;;1.85;0.80;;;;;;;-147.53;100.00;57128.34;10401254;28;20045;-70
2022/11/18 22:27:19;;;;;;;0.30;0.30;;;;;;;-147.53;100.00;57128.34;10405884;28;20310;-70
2022/11/18 22:32:21;;;;;;;0.28;0.28;;;;;;;-147.53;100.00;57128.34;10406776;28;20099;-70
2022/11/18 22:37:22;;;;;;;0.25;0.25;;;;;;;-147.53;100.00;57128.34;10402726;28;20109;-71
2022/11/18 22:47:44;;;;;;;0.17;0.17;;;;;;;-147.53;100.00;57128.34;10410686;28;20049;-71
2022/11/18 22:52:45;;;;;;;2.08;0.65;;;;;;;-147.53;100.00;57128.34;10407959;28;20123;-71
2022/11/18 22:57:47;;;;;;;0.63;0.57;;;;;;;-147.53;100.00;57128.34;10416951;28;20049;-72
2022/11/18 23:02:48;;;;;;;0.50;0.30;;;;;;;-147.53;100.00;57128.34;10401121;28;20057;-71
2022/11/18 23:07:50;;;;;;;0.52;0.47;;;;;;;-147.53;100.00;57128.34;10401891;28;20505;-72
2022/11/18 23:18:11;;;;;;;0.10;0.10;;;;;;;-147.53;100.00;57128.34;10394455;28;20586;-69
2022/11/18 23:23:13;;;;;;;0.10;0.10;;;;;;;-147.53;100.00;57128.34;10401376;28;20060;-70